sensor_id;sensor_type;location;lat;lon;timestamp;temperature;humidity
13433;DHT22;6789;47.678;9.158;2024-03-02T00:03:31;6.40;99.90
13433;DHT22;6789;47.678;9.158;2024-03-02T00:08:25;6.40;99.90
13433;DHT22;6789;47.678;9.158;2024-03-02T00:13:22;6.40;99.90
13433;DHT22;6789;47.678;9.158;2024-03-02T00:18:18;6.40;99.90
13433;DHT22;6789;47.678;9.158;2024-03-02T00:23:33;6.50;99.90
13433;DHT22;6789;47.678;9.158;2024-03-02T00:28:31;6.50;99.90
13433;DHT22;6789;47.678;9.158;2024-03-02T00:33:31;6.60;99.90
13433;DHT22;6789;47.678;9.158;2024-03-02T00:38:25;6.60;99.90
13433;DHT22;6789;47.678;9.158;2024-03-02T00:48:31;6.80;99.90
13433;DHT22;6789;47.678;9.158;2024-03-02T00:53:27;6.90;99.90
13433;DHT22;6789;47.678;9.158;2024-03-02T00:58:18;6.80;99.90
13433;DHT22;6789;47.678;9.158;2024-03-02T01:03:10;6.80;99.90
13433;DHT22;6789;47.678;9.158;2024-03-02T01:08:02;6.70;99.90
13433;DHT22;6789;47.678;9.158;2024-03-02T01:12:54;6.70;99.90
13433;DHT22;6789;47.678;9.158;2024-03-02T01:17:46;6.70;99.90
13433;DHT22;6789;47.678;9.158;2024-03-02T01:22:38;6.60;99.90
13433;DHT22;6789;47.678;9.158;2024-03-02T01:27:29;6.60;99.90
13433;DHT22;6789;47.678;9.158;2024-03-02T01:32:21;6.50;99.90
13433;DHT22;6789;47.678;9.158;2024-03-02T01:37:13;6.50;99.90
13433;DHT22;6789;47.678;9.158;2024-03-02T01:42:05;6.60;99.90
13433;DHT22;6789;47.678;9.158;2024-03-02T01:46:57;6.60;99.90
13433;DHT22;6789;47.678;9.158;2024-03-02T01:51:49;6.60;99.90
13433;DHT22;6789;47.678;9.158;2024-03-02T01:56:41;6.60;99.90
13433;DHT22;6789;47.678;9.158;2024-03-02T02:01:32;6.60;99.90
13433;DHT22;6789;47.678;9.158;2024-03-02T02:06:24;6.50;99.90
13433;DHT22;6789;47.678;9.158;2024-03-02T02:11:17;6.50;99.90
13433;DHT22;6789;47.678;9.158;2024-03-02T02:16:09;6.50;99.90
13433;DHT22;6789;47.678;9.158;2024-03-02T02:21:01;6.50;99.90
13433;DHT22;6789;47.678;9.158;2024-03-02T02:25:53;6.50;99.90
13433;DHT22;6789;47.678;9.158;2024-03-02T02:30:45;6.40;99.90
13433;DHT22;6789;47.678;9.158;2024-03-02T02:35:37;6.40;99.90
13433;DHT22;6789;47.678;9.158;2024-03-02T02:40:28;6.40;99.90
13433;DHT22;6789;47.678;9.158;2024-03-02T02:45:23;6.40;99.90
13433;DHT22;6789;47.678;9.158;2024-03-02T02:50:15;6.40;99.90
13433;DHT22;6789;47.678;9.158;2024-03-02T02:55:09;6.50;99.90
13433;DHT22;6789;47.678;9.158;2024-03-02T03:00:09;6.40;99.90
13433;DHT22;6789;47.678;9.158;2024-03-02T03:05:09;6.40;99.90
13433;DHT22;6789;47.678;9.158;2024-03-02T03:10:02;6.30;99.90
13433;DHT22;6789;47.678;9.158;2024-03-02T03:14:55;6.30;99.90
13433;DHT22;6789;47.678;9.158;2024-03-02T03:19:47;6.30;99.90
13433;DHT22;6789;47.678;9.158;2024-03-02T03:24:39;6.20;99.90
13433;DHT22;6789;47.678;9.158;2024-03-02T03:29:31;6.20;99.90
13433;DHT22;6789;47.678;9.158;2024-03-02T03:34:22;6.20;99.90
13433;DHT22;6789;47.678;9.158;2024-03-02T03:39:14;6.10;99.90
13433;DHT22;6789;47.678;9.158;2024-03-02T03:44:06;6.00;99.90
13433;DHT22;6789;47.678;9.158;2024-03-02T03:48:58;5.90;99.90
13433;DHT22;6789;47.678;9.158;2024-03-02T03:53:50;5.80;99.90
13433;DHT22;6789;47.678;9.158;2024-03-02T03:58:42;5.70;99.90
13433;DHT22;6789;47.678;9.158;2024-03-02T04:03:33;5.70;99.90
13433;DHT22;6789;47.678;9.158;2024-03-02T04:08:25;5.80;99.90
13433;DHT22;6789;47.678;9.158;2024-03-02T04:13:17;5.80;99.90
13433;DHT22;6789;47.678;9.158;2024-03-02T04:18:09;5.80;99.90
13433;DHT22;6789;47.678;9.158;2024-03-02T04:23:00;5.80;99.90
13433;DHT22;6789;47.678;9.158;2024-03-02T04:27:52;5.80;99.90
13433;DHT22;6789;47.678;9.158;2024-03-02T04:32:44;6.00;99.90
13433;DHT22;6789;47.678;9.158;2024-03-02T04:37:38;6.00;99.90
13433;DHT22;6789;47.678;9.158;2024-03-02T04:42:30;6.00;99.90
13433;DHT22;6789;47.678;9.158;2024-03-02T04:47:22;5.90;99.90
13433;DHT22;6789;47.678;9.158;2024-03-02T04:52:14;5.90;99.90
13433;DHT22;6789;47.678;9.158;2024-03-02T04:57:05;5.80;99.90
13433;DHT22;6789;47.678;9.158;2024-03-02T05:01:57;5.90;99.90
13433;DHT22;6789;47.678;9.158;2024-03-02T05:06:50;5.90;99.90
13433;DHT22;6789;47.678;9.158;2024-03-02T05:11:44;5.90;99.90
13433;DHT22;6789;47.678;9.158;2024-03-02T05:16:56;5.90;99.90
13433;DHT22;6789;47.678;9.158;2024-03-02T05:21:48;5.80;99.90
13433;DHT22;6789;47.678;9.158;2024-03-02T05:26:40;5.70;99.90
13433;DHT22;6789;47.678;9.158;2024-03-02T05:31:31;5.60;99.90
13433;DHT22;6789;47.678;9.158;2024-03-02T05:36:23;5.50;99.90
13433;DHT22;6789;47.678;9.158;2024-03-02T05:41:15;5.60;99.90
13433;DHT22;6789;47.678;9.158;2024-03-02T05:46:07;5.60;99.90
13433;DHT22;6789;47.678;9.158;2024-03-02T05:50:58;5.70;99.90
13433;DHT22;6789;47.678;9.158;2024-03-02T05:55:50;5.80;99.90
13433;DHT22;6789;47.678;9.158;2024-03-02T06:00:46;5.90;99.90
13433;DHT22;6789;47.678;9.158;2024-03-02T06:05:38;5.90;99.90
13433;DHT22;6789;47.678;9.158;2024-03-02T06:10:30;5.90;99.90
13433;DHT22;6789;47.678;9.158;2024-03-02T06:15:21;5.90;99.90
13433;DHT22;6789;47.678;9.158;2024-03-02T06:20:13;5.90;99.90
13433;DHT22;6789;47.678;9.158;2024-03-02T06:25:05;5.90;99.90
13433;DHT22;6789;47.678;9.158;2024-03-02T06:29:57;6.20;99.90
13433;DHT22;6789;47.678;9.158;2024-03-02T06:34:49;6.10;99.90
13433;DHT22;6789;47.678;9.158;2024-03-02T06:39:41;6.00;99.90
13433;DHT22;6789;47.678;9.158;2024-03-02T06:44:34;6.00;99.90
13433;DHT22;6789;47.678;9.158;2024-03-02T06:49:25;6.20;99.90
13433;DHT22;6789;47.678;9.158;2024-03-02T06:54:17;6.10;99.90
13433;DHT22;6789;47.678;9.158;2024-03-02T06:59:09;6.10;99.90
13433;DHT22;6789;47.678;9.158;2024-03-02T07:04:01;6.10;99.90
13433;DHT22;6789;47.678;9.158;2024-03-02T07:08:53;6.10;99.90
13433;DHT22;6789;47.678;9.158;2024-03-02T07:13:44;6.30;99.90
13433;DHT22;6789;47.678;9.158;2024-03-02T07:18:36;6.30;99.90
13433;DHT22;6789;47.678;9.158;2024-03-02T07:23:34;6.30;99.90
13433;DHT22;6789;47.678;9.158;2024-03-02T07:28:26;6.30;99.90
13433;DHT22;6789;47.678;9.158;2024-03-02T07:33:32;6.40;99.90
13433;DHT22;6789;47.678;9.158;2024-03-02T07:38:38;6.30;99.90
13433;DHT22;6789;47.678;9.158;2024-03-02T07:43:39;6.30;99.90
13433;DHT22;6789;47.678;9.158;2024-03-02T07:48:31;6.40;99.90
13433;DHT22;6789;47.678;9.158;2024-03-02T07:53:23;6.10;99.90
13433;DHT22;6789;47.678;9.158;2024-03-02T07:58:14;6.00;99.90
13433;DHT22;6789;47.678;9.158;2024-03-02T08:03:06;6.10;99.90
13433;DHT22;6789;47.678;9.158;2024-03-02T08:07:58;6.00;99.90
13433;DHT22;6789;47.678;9.158;2024-03-02T08:12:50;6.10;99.90
13433;DHT22;6789;47.678;9.158;2024-03-02T08:17:42;6.10;99.90
13433;DHT22;6789;47.678;9.158;2024-03-02T08:22:36;6.20;99.90
13433;DHT22;6789;47.678;9.158;2024-03-02T08:27:29;6.20;99.90
13433;DHT22;6789;47.678;9.158;2024-03-02T08:32:20;6.40;99.90
13433;DHT22;6789;47.678;9.158;2024-03-02T08:37:12;6.50;99.90
13433;DHT22;6789;47.678;9.158;2024-03-02T08:42:04;6.60;99.90
13433;DHT22;6789;47.678;9.158;2024-03-02T08:46:56;6.50;99.90
13433;DHT22;6789;47.678;9.158;2024-03-02T08:51:48;6.50;99.90
13433;DHT22;6789;47.678;9.158;2024-03-02T08:56:46;6.50;99.90
13433;DHT22;6789;47.678;9.158;2024-03-02T09:01:37;6.50;99.90
13433;DHT22;6789;47.678;9.158;2024-03-02T09:06:33;6.70;99.90
13433;DHT22;6789;47.678;9.158;2024-03-02T09:11:25;6.60;99.90
13433;DHT22;6789;47.678;9.158;2024-03-02T09:16:17;6.70;99.90
13433;DHT22;6789;47.678;9.158;2024-03-02T09:21:09;6.70;99.90
13433;DHT22;6789;47.678;9.158;2024-03-02T09:26:01;6.60;99.90
13433;DHT22;6789;47.678;9.158;2024-03-02T09:30:54;6.40;99.90
13433;DHT22;6789;47.678;9.158;2024-03-02T09:35:50;6.50;99.90
13433;DHT22;6789;47.678;9.158;2024-03-02T09:40:45;6.40;99.90
13433;DHT22;6789;47.678;9.158;2024-03-02T09:45:37;6.60;99.90
13433;DHT22;6789;47.678;9.158;2024-03-02T09:50:29;6.70;99.90
13433;DHT22;6789;47.678;9.158;2024-03-02T09:55:21;6.90;99.90
13433;DHT22;6789;47.678;9.158;2024-03-02T10:00:14;7.20;99.90
13433;DHT22;6789;47.678;9.158;2024-03-02T10:05:07;7.40;99.90
13433;DHT22;6789;47.678;9.158;2024-03-02T10:10:13;7.60;99.90
13433;DHT22;6789;47.678;9.158;2024-03-02T10:15:06;7.60;99.90
13433;DHT22;6789;47.678;9.158;2024-03-02T10:19:59;7.80;99.90
13433;DHT22;6789;47.678;9.158;2024-03-02T10:24:51;8.10;99.90
13433;DHT22;6789;47.678;9.158;2024-03-02T10:29:49;8.30;99.90
13433;DHT22;6789;47.678;9.158;2024-03-02T10:34:42;8.10;99.90
13433;DHT22;6789;47.678;9.158;2024-03-02T10:39:36;8.20;99.90
13433;DHT22;6789;47.678;9.158;2024-03-02T10:44:31;8.70;99.90
13433;DHT22;6789;47.678;9.158;2024-03-02T10:49:24;9.00;99.90
13433;DHT22;6789;47.678;9.158;2024-03-02T10:54:17;9.10;99.90
13433;DHT22;6789;47.678;9.158;2024-03-02T11:04:23;9.40;99.90
13433;DHT22;6789;47.678;9.158;2024-03-02T11:09:18;9.70;99.90
13433;DHT22;6789;47.678;9.158;2024-03-02T11:14:14;9.60;99.90
13433;DHT22;6789;47.678;9.158;2024-03-02T11:19:11;9.40;99.90
13433;DHT22;6789;47.678;9.158;2024-03-02T11:34:31;9.50;99.90
13433;DHT22;6789;47.678;9.158;2024-03-02T11:39:27;9.70;99.90
13433;DHT22;6789;47.678;9.158;2024-03-02T11:44:21;10.00;99.90
13433;DHT22;6789;47.678;9.158;2024-03-02T11:49:14;10.20;99.90
13433;DHT22;6789;47.678;9.158;2024-03-02T11:54:07;10.30;99.90
13433;DHT22;6789;47.678;9.158;2024-03-02T11:58:59;10.60;99.90
13433;DHT22;6789;47.678;9.158;2024-03-02T12:03:52;10.60;99.90
13433;DHT22;6789;47.678;9.158;2024-03-02T12:08:46;10.60;99.90
13433;DHT22;6789;47.678;9.158;2024-03-02T12:13:52;10.60;99.90
13433;DHT22;6789;47.678;9.158;2024-03-02T12:18:46;10.70;99.90
13433;DHT22;6789;47.678;9.158;2024-03-02T12:23:38;10.70;99.90
13433;DHT22;6789;47.678;9.158;2024-03-02T12:28:29;10.80;99.90
13433;DHT22;6789;47.678;9.158;2024-03-02T12:33:23;10.80;99.90
13433;DHT22;6789;47.678;9.158;2024-03-02T12:38:15;10.90;99.90
13433;DHT22;6789;47.678;9.158;2024-03-02T12:43:07;11.10;99.90
13433;DHT22;6789;47.678;9.158;2024-03-02T12:48:00;10.90;99.90
13433;DHT22;6789;47.678;9.158;2024-03-02T12:52:53;11.10;99.90
13433;DHT22;6789;47.678;9.158;2024-03-02T12:57:46;11.30;99.90
13433;DHT22;6789;47.678;9.158;2024-03-02T13:02:41;11.50;99.90
13433;DHT22;6789;47.678;9.158;2024-03-02T13:07:34;11.50;99.90
13433;DHT22;6789;47.678;9.158;2024-03-02T13:12:25;11.50;99.90
13433;DHT22;6789;47.678;9.158;2024-03-02T13:17:18;11.80;99.90
13433;DHT22;6789;47.678;9.158;2024-03-02T13:22:11;11.90;99.90
13433;DHT22;6789;47.678;9.158;2024-03-02T13:27:03;11.90;99.90
13433;DHT22;6789;47.678;9.158;2024-03-02T13:31:55;11.90;99.90
13433;DHT22;6789;47.678;9.158;2024-03-02T13:36:49;12.10;99.90
13433;DHT22;6789;47.678;9.158;2024-03-02T13:41:40;12.40;99.90
13433;DHT22;6789;47.678;9.158;2024-03-02T13:46:32;12.60;99.90
13433;DHT22;6789;47.678;9.158;2024-03-02T13:51:24;12.80;99.90
13433;DHT22;6789;47.678;9.158;2024-03-02T13:56:17;13.00;99.90
13433;DHT22;6789;47.678;9.158;2024-03-02T14:01:09;13.20;99.90
13433;DHT22;6789;47.678;9.158;2024-03-02T14:06:01;13.30;99.90
13433;DHT22;6789;47.678;9.158;2024-03-02T14:10:53;13.50;99.90
13433;DHT22;6789;47.678;9.158;2024-03-02T14:15:45;13.60;99.90
13433;DHT22;6789;47.678;9.158;2024-03-02T14:20:37;13.50;99.90
13433;DHT22;6789;47.678;9.158;2024-03-02T14:25:30;13.50;99.90
13433;DHT22;6789;47.678;9.158;2024-03-02T14:30:25;13.40;99.90
13433;DHT22;6789;47.678;9.158;2024-03-02T14:35:17;13.40;99.90
13433;DHT22;6789;47.678;9.158;2024-03-02T14:40:09;13.30;99.90
13433;DHT22;6789;47.678;9.158;2024-03-02T14:45:03;13.40;99.90
13433;DHT22;6789;47.678;9.158;2024-03-02T14:49:56;13.30;99.90
13433;DHT22;6789;47.678;9.158;2024-03-02T14:54:48;13.40;99.90
13433;DHT22;6789;47.678;9.158;2024-03-02T14:59:39;13.40;99.90
13433;DHT22;6789;47.678;9.158;2024-03-02T15:04:31;13.60;99.90
13433;DHT22;6789;47.678;9.158;2024-03-02T15:09:23;13.60;99.90
13433;DHT22;6789;47.678;9.158;2024-03-02T15:14:15;13.60;99.90
13433;DHT22;6789;47.678;9.158;2024-03-02T15:19:06;13.60;99.90
13433;DHT22;6789;47.678;9.158;2024-03-02T15:23:58;13.50;99.90
13433;DHT22;6789;47.678;9.158;2024-03-02T15:28:50;13.50;99.90
13433;DHT22;6789;47.678;9.158;2024-03-02T15:33:44;13.50;99.90
13433;DHT22;6789;47.678;9.158;2024-03-02T15:38:36;13.30;99.90
13433;DHT22;6789;47.678;9.158;2024-03-02T15:43:33;13.30;99.90
13433;DHT22;6789;47.678;9.158;2024-03-02T15:48:27;13.20;99.90
13433;DHT22;6789;47.678;9.158;2024-03-02T15:53:19;13.10;99.90
13433;DHT22;6789;47.678;9.158;2024-03-02T15:58:11;13.10;99.90
13433;DHT22;6789;47.678;9.158;2024-03-02T16:03:03;13.10;99.90
13433;DHT22;6789;47.678;9.158;2024-03-02T16:07:55;13.00;99.90
13433;DHT22;6789;47.678;9.158;2024-03-02T16:12:46;12.90;99.90
13433;DHT22;6789;47.678;9.158;2024-03-02T16:17:38;12.80;99.90
13433;DHT22;6789;47.678;9.158;2024-03-02T16:22:30;12.60;99.90
13433;DHT22;6789;47.678;9.158;2024-03-02T16:27:22;12.50;99.90
13433;DHT22;6789;47.678;9.158;2024-03-02T16:32:13;12.60;99.90
13433;DHT22;6789;47.678;9.158;2024-03-02T16:37:05;12.50;99.90
13433;DHT22;6789;47.678;9.158;2024-03-02T16:41:57;12.30;99.90
13433;DHT22;6789;47.678;9.158;2024-03-02T16:46:49;12.20;99.90
13433;DHT22;6789;47.678;9.158;2024-03-02T16:51:42;12.10;99.90
13433;DHT22;6789;47.678;9.158;2024-03-02T16:56:38;12.00;99.90
13433;DHT22;6789;47.678;9.158;2024-03-02T17:01:34;12.00;99.90
13433;DHT22;6789;47.678;9.158;2024-03-02T17:06:26;11.90;99.90
13433;DHT22;6789;47.678;9.158;2024-03-02T17:11:18;11.80;99.90
13433;DHT22;6789;47.678;9.158;2024-03-02T17:16:13;11.70;99.90
13433;DHT22;6789;47.678;9.158;2024-03-02T17:21:09;11.50;99.90
13433;DHT22;6789;47.678;9.158;2024-03-02T17:26:00;11.30;99.90
13433;DHT22;6789;47.678;9.158;2024-03-02T17:30:53;11.10;99.90
13433;DHT22;6789;47.678;9.158;2024-03-02T17:35:45;11.00;99.90
13433;DHT22;6789;47.678;9.158;2024-03-02T17:40:39;10.90;99.90
13433;DHT22;6789;47.678;9.158;2024-03-02T17:45:30;10.90;99.90
13433;DHT22;6789;47.678;9.158;2024-03-02T17:50:22;10.70;99.90
13433;DHT22;6789;47.678;9.158;2024-03-02T17:55:14;10.60;99.90
13433;DHT22;6789;47.678;9.158;2024-03-02T18:00:06;10.50;99.90
13433;DHT22;6789;47.678;9.158;2024-03-02T18:05:01;10.50;99.90
13433;DHT22;6789;47.678;9.158;2024-03-02T18:09:53;10.50;99.90
13433;DHT22;6789;47.678;9.158;2024-03-02T18:14:45;10.40;99.90
13433;DHT22;6789;47.678;9.158;2024-03-02T18:19:36;10.40;99.90
13433;DHT22;6789;47.678;9.158;2024-03-02T18:24:28;10.50;99.90
13433;DHT22;6789;47.678;9.158;2024-03-02T18:29:20;10.50;99.90
13433;DHT22;6789;47.678;9.158;2024-03-02T18:34:12;10.50;99.90
13433;DHT22;6789;47.678;9.158;2024-03-02T18:39:04;10.40;99.90
13433;DHT22;6789;47.678;9.158;2024-03-02T18:43:57;10.30;99.90
13433;DHT22;6789;47.678;9.158;2024-03-02T18:48:49;10.20;99.90
13433;DHT22;6789;47.678;9.158;2024-03-02T18:53:41;10.10;99.90
13433;DHT22;6789;47.678;9.158;2024-03-02T18:58:35;10.00;99.90
13433;DHT22;6789;47.678;9.158;2024-03-02T19:03:27;9.70;99.90
13433;DHT22;6789;47.678;9.158;2024-03-02T19:08:19;9.50;99.90
13433;DHT22;6789;47.678;9.158;2024-03-02T19:13:11;9.50;99.90
13433;DHT22;6789;47.678;9.158;2024-03-02T19:18:03;9.30;99.90
13433;DHT22;6789;47.678;9.158;2024-03-02T19:22:55;9.20;99.90
13433;DHT22;6789;47.678;9.158;2024-03-02T19:27:47;9.00;99.90
13433;DHT22;6789;47.678;9.158;2024-03-02T19:32:38;9.00;99.90
13433;DHT22;6789;47.678;9.158;2024-03-02T19:37:30;9.00;99.90
13433;DHT22;6789;47.678;9.158;2024-03-02T19:42:22;8.80;99.90
13433;DHT22;6789;47.678;9.158;2024-03-02T19:47:14;8.80;99.90
13433;DHT22;6789;47.678;9.158;2024-03-02T19:52:09;8.60;99.90
13433;DHT22;6789;47.678;9.158;2024-03-02T19:57:02;8.60;99.90
13433;DHT22;6789;47.678;9.158;2024-03-02T20:01:54;8.60;99.90
13433;DHT22;6789;47.678;9.158;2024-03-02T20:06:46;8.50;99.90
13433;DHT22;6789;47.678;9.158;2024-03-02T20:11:38;8.40;99.90
13433;DHT22;6789;47.678;9.158;2024-03-02T20:16:29;8.30;99.90
13433;DHT22;6789;47.678;9.158;2024-03-02T20:21:21;8.20;99.90
13433;DHT22;6789;47.678;9.158;2024-03-02T20:26:13;8.30;99.90
13433;DHT22;6789;47.678;9.158;2024-03-02T20:31:05;8.10;99.90
13433;DHT22;6789;47.678;9.158;2024-03-02T20:35:57;7.90;99.90
13433;DHT22;6789;47.678;9.158;2024-03-02T20:40:48;7.90;99.90
13433;DHT22;6789;47.678;9.158;2024-03-02T20:45:42;7.80;99.90
13433;DHT22;6789;47.678;9.158;2024-03-02T20:50:34;7.80;99.90
13433;DHT22;6789;47.678;9.158;2024-03-02T20:55:26;7.80;99.90
13433;DHT22;6789;47.678;9.158;2024-03-02T21:00:18;7.70;99.90
13433;DHT22;6789;47.678;9.158;2024-03-02T21:05:11;7.60;99.90
13433;DHT22;6789;47.678;9.158;2024-03-02T21:10:03;7.70;99.90
13433;DHT22;6789;47.678;9.158;2024-03-02T21:14:56;7.60;99.90
13433;DHT22;6789;47.678;9.158;2024-03-02T21:19:48;7.50;99.90
13433;DHT22;6789;47.678;9.158;2024-03-02T21:24:41;7.60;99.90
13433;DHT22;6789;47.678;9.158;2024-03-02T21:29:37;7.50;99.90
13433;DHT22;6789;47.678;9.158;2024-03-02T21:34:29;7.30;99.90
13433;DHT22;6789;47.678;9.158;2024-03-02T21:39:20;7.50;99.90
13433;DHT22;6789;47.678;9.158;2024-03-02T21:44:26;7.50;99.90
13433;DHT22;6789;47.678;9.158;2024-03-02T21:49:18;7.40;99.90
13433;DHT22;6789;47.678;9.158;2024-03-02T21:54:10;7.30;99.90
13433;DHT22;6789;47.678;9.158;2024-03-02T21:59:04;7.30;99.90
13433;DHT22;6789;47.678;9.158;2024-03-02T22:03:56;7.20;99.90
13433;DHT22;6789;47.678;9.158;2024-03-02T22:08:48;7.20;99.90
13433;DHT22;6789;47.678;9.158;2024-03-02T22:13:39;7.10;99.90
13433;DHT22;6789;47.678;9.158;2024-03-02T22:18:31;7.00;99.90
13433;DHT22;6789;47.678;9.158;2024-03-02T22:23:23;6.90;99.90
13433;DHT22;6789;47.678;9.158;2024-03-02T22:28:15;7.00;99.90
13433;DHT22;6789;47.678;9.158;2024-03-02T22:33:07;7.20;99.90
13433;DHT22;6789;47.678;9.158;2024-03-02T22:37:58;7.10;99.90
13433;DHT22;6789;47.678;9.158;2024-03-02T22:42:50;7.00;99.90
13433;DHT22;6789;47.678;9.158;2024-03-02T22:47:42;6.90;99.90
13433;DHT22;6789;47.678;9.158;2024-03-02T22:52:34;6.90;99.90
13433;DHT22;6789;47.678;9.158;2024-03-02T22:57:26;6.90;99.90
13433;DHT22;6789;47.678;9.158;2024-03-02T23:02:18;6.80;99.90
13433;DHT22;6789;47.678;9.158;2024-03-02T23:07:25;6.90;99.90
13433;DHT22;6789;47.678;9.158;2024-03-02T23:12:54;6.90;99.90
13433;DHT22;6789;47.678;9.158;2024-03-02T23:17:49;6.90;99.90
13433;DHT22;6789;47.678;9.158;2024-03-02T23:23:01;6.90;99.90
13433;DHT22;6789;47.678;9.158;2024-03-02T23:27:56;7.00;99.90
13433;DHT22;6789;47.678;9.158;2024-03-02T23:32:47;7.00;99.90
13433;DHT22;6789;47.678;9.158;2024-03-02T23:37:40;7.10;99.90
13433;DHT22;6789;47.678;9.158;2024-03-02T23:42:32;6.90;99.90
13433;DHT22;6789;47.678;9.158;2024-03-02T23:47:23;6.90;99.90
13433;DHT22;6789;47.678;9.158;2024-03-02T23:52:16;6.80;99.90
13433;DHT22;6789;47.678;9.158;2024-03-02T23:57:07;6.80;99.90
